Time;durP1;ratioP1;P1;durP2;ratioP2;P2;SDS_P1;SDS_P2;PMS_P1;PMS_P2;Temp;Humidity;BMP_temperature;BMP_pressure;BME280_temperature;BME280_humidity;BME280_pressure;Samples;Min_cycle;Max_cycle;Signal;HPM_P1;HPM_P2
2022/06/22 00:00:14;;;;;;;14.45;9.18;;;;;;;;;;4375407;32;20024;-71
2022/06/22 00:02:42;;;;;;;16.80;9.30;;;;;;;;;;4374646;32;20027;-71
2022/06/22 00:05:14;;;;;;;14.07;8.43;;;;;;;;;;4376346;32;20105;-71
2022/06/22 00:07:42;;;;;;;16.48;10.10;;;;;;;;;;4376510;32;20103;-71
2022/06/22 00:10:15;;;;;;;15.60;8.60;;;;;;;;;;4376165;32;20057;-71
2022/06/22 00:12:40;;;;;;;13.27;8.50;;;;;;;;;;4374874;32;20022;-71
2022/06/22 00:15:20;;;;;;;19.33;10.07;;;;;;;;;;4375354;32;20027;-71
2022/06/22 00:17:45;;;;;;;16.83;10.95;;;;;;;;;;4376090;32;20116;-71
2022/06/22 00:20:11;;;;;;;15.80;10.52;;;;;;;;;;4375598;32;20098;-71
2022/06/22 00:22:47;;;;;;;13.25;9.73;;;;;;;;;;4375518;32;20049;-71
2022/06/22 00:25:32;;;;;;;16.27;11.12;;;;;;;;;;4374756;32;20073;-71
2022/06/22 00:28:30;;;;;;;11.27;10.18;;;;;;;;;;4366894;32;20027;-71
2022/06/22 00:31:11;;;;;;;11.68;10.45;;;;;;;;;;4349843;32;20074;-71
2022/06/22 00:33:36;;;;;;;14.18;9.85;;;;;;;;;;4362114;33;20049;-71
2022/06/22 00:36:01;;;;;;;20.88;11.55;;;;;;;;;;4360708;33;20431;-71
2022/06/22 00:38:37;;;;;;;14.65;10.32;;;;;;;;;;4382985;27;20077;-77
2022/06/22 00:41:09;;;;;;;17.20;12.48;;;;;;;;;;4377908;32;20174;-77
2022/06/22 01:14:56;;;;;;;17.25;11.82;;;;;;;;;;4317291;33;20084;-77
2022/06/22 02:56:16;;;;;;;18.45;13.70;;;;;;;;;;4391720;32;20115;-76
2022/06/22 02:58:42;;;;;;;18.27;13.30;;;;;;;;;;4382023;32;20079;-76
2022/06/22 03:01:12;;;;;;;22.50;14.38;;;;;;;;;;4373716;32;20121;-76
2022/06/22 03:03:41;;;;;;;17.27;13.05;;;;;;;;;;4374152;32;20062;-76
2022/06/22 03:15:48;;;;;;;21.48;17.23;;;;;;;;;;4375550;32;20451;-76
2022/06/22 03:27:35;;;;;;;20.12;16.30;;;;;;;;;;4329275;33;20104;-75
2022/06/22 03:39:14;;;;;;;27.40;18.50;;;;;;;;;;4314544;33;20457;-75
2022/06/22 03:54:25;;;;;;;24.12;19.15;;;;;;;;;;4313162;33;20079;-75
2022/06/22 03:56:51;;;;;;;31.15;19.42;;;;;;;;;;4310951;33;20044;-75
2022/06/22 04:21:28;;;;;;;23.38;15.98;;;;;;;;;;4259782;33;20064;-75
2022/06/22 04:45:41;;;;;;;23.55;13.48;;;;;;;;;;4331355;33;20053;-76
2022/06/22 04:48:11;;;;;;;18.10;13.15;;;;;;;;;;4357287;32;20043;-76
2022/06/22 04:50:38;;;;;;;23.20;14.48;;;;;;;;;;4378882;32;20054;-76
2022/06/22 04:53:04;;;;;;;17.12;13.43;;;;;;;;;;4378381;32;20046;-76
2022/06/22 04:55:40;;;;;;;19.85;15.30;;;;;;;;;;4378010;32;20053;-76
2022/06/22 04:58:24;;;;;;;24.70;15.83;;;;;;;;;;4378685;32;20066;-73
2022/06/22 05:00:50;;;;;;;22.00;14.23;;;;;;;;;;4391022;32;20026;-76
2022/06/22 05:06:27;;;;;;;18.55;15.25;;;;;;;;;;4376947;32;20108;-76
2022/06/22 05:08:54;;;;;;;18.98;15.65;;;;;;;;;;4385327;32;20054;-76
2022/06/22 05:11:28;;;;;;;20.98;16.25;;;;;;;;;;4392324;32;20054;-75
2022/06/22 05:14:17;;;;;;;;;;;;;;;;;;;;;
2022/06/22 05:16:46;;;;;;;22.60;14.50;;;;;;;;;;4377690;32;20035;-74
2022/06/22 05:19:12;;;;;;;17.35;13.50;;;;;;;;;;4393178;32;20077;-74
2022/06/22 05:21:39;;;;;;;20.30;13.77;;;;;;;;;;4393562;32;20050;-74
2022/06/22 05:24:08;;;;;;;18.52;12.82;;;;;;;;;;4392647;32;20356;-74
2022/06/22 05:26:36;;;;;;;28.58;13.18;;;;;;;;;;4392653;32;20406;-75
2022/06/22 05:29:08;;;;;;;18.33;12.02;;;;;;;;;;4392388;32;20058;-75
2022/06/22 05:31:42;;;;;;;17.98;12.63;;;;;;;;;;4392595;32;20101;-76
2022/06/22 05:34:14;;;;;;;20.30;11.12;;;;;;;;;;4392046;32;20027;-76
2022/06/22 05:36:51;;;;;;;19.42;11.48;;;;;;;;;;4391895;32;20042;-75
2022/06/22 05:39:53;;;;;;;;;;;;;;;;;;;;;
2022/06/22 05:48:49;;;;;;;13.15;10.50;;;;;;;;;;4364360;32;20113;-76
2022/06/22 05:51:20;;;;;;;16.65;11.10;;;;;;;;;;4357589;32;20429;-76
2022/06/22 05:53:50;;;;;;;18.20;11.05;;;;;;;;;;4405322;32;20026;-76
2022/06/22 05:56:29;;;;;;;18.62;11.75;;;;;;;;;;4405476;32;20022;-76
2022/06/22 05:58:59;;;;;;;16.58;10.57;;;;;;;;;;4404331;32;20102;-77
2022/06/22 06:01:38;;;;;;;18.17;11.60;;;;;;;;;;4406549;32;20077;-74
2022/06/22 06:04:22;;;;;;;22.45;12.48;;;;;;;;;;4407201;32;20076;-75
2022/06/22 06:06:48;;;;;;;20.05;12.07;;;;;;;;;;4417755;32;20085;-75
2022/06/22 06:12:27;;;;;;;16.08;11.12;;;;;;;;;;4374308;32;20035;-75
2022/06/22 06:14:54;;;;;;;15.95;10.80;;;;;;;;;;4413213;32;20134;-76
2022/06/22 06:17:24;;;;;;;16.05;11.05;;;;;;;;;;4406549;32;20414;-77
2022/06/22 06:22:54;;;;;;;18.52;11.45;;;;;;;;;;4396886;32;20082;-75
2022/06/22 06:28:15;;;;;;;16.45;10.95;;;;;;;;;;4417104;32;20049;-76
2022/06/22 06:30:46;;;;;;;23.90;11.93;;;;;;;;;;4392732;32;20026;-75
2022/06/22 06:33:16;;;;;;;18.52;11.25;;;;;;;;;;4400327;32;20569;-75
2022/06/22 06:35:49;;;;;;;16.37;10.98;;;;;;;;;;4403549;32;20038;-75
2022/06/22 06:38:18;;;;;;;23.75;11.52;;;;;;;;;;4405279;32;20034;-76
2022/06/22 06:41:09;;;;;;;15.20;11.43;;;;;;;;;;4415201;32;20072;-77
2022/06/22 06:43:36;;;;;;;12.70;9.32;;;;;;;;;;4415207;32;20355;-76
2022/06/22 06:46:03;;;;;;;15.63;8.93;;;;;;;;;;4419069;32;20025;-76
2022/06/22 06:48:31;;;;;;;14.70;9.63;;;;;;;;;;4415520;32;20076;-76
2022/06/22 06:50:58;;;;;;;13.20;8.65;;;;;;;;;;4406142;32;20064;-76
2022/06/22 06:53:29;;;;;;;14.50;8.73;;;;;;;;;;4402153;32;20027;-73
2022/06/22 06:56:14;;;;;;;10.73;7.32;;;;;;;;;;4390841;32;20056;-77
2022/06/22 06:58:42;;;;;;;10.70;7.62;;;;;;;;;;4406637;32;20042;-77
2022/06/22 07:01:13;;;;;;;9.52;7.65;;;;;;;;;;4406178;32;20022;-76
2022/06/22 07:03:57;;;;;;;13.07;8.18;;;;;;;;;;4406301;32;20348;-76
2022/06/22 07:09:46;;;;;;;;;;;;;;;;;;;;;
2022/06/22 07:12:18;;;;;;;11.43;6.82;;;;;;;;;;4406068;32;20485;-76
2022/06/22 07:21:26;;;;;;;11.95;5.40;;;;;;;;;;4286103;33;20084;-77
2022/06/22 07:24:16;;;;;;;8.73;6.30;;;;;;;;;;4286251;33;20083;-75
2022/06/22 07:26:51;;;;;;;9.95;5.93;;;;;;;;;;4284464;33;20247;-76
2022/06/22 07:29:24;;;;;;;11.50;6.90;;;;;;;;;;4326143;33;20039;-75
2022/06/22 07:31:54;;;;;;;16.73;7.07;;;;;;;;;;4360857;32;20027;-76
2022/06/22 07:34:38;;;;;;;9.70;6.18;;;;;;;;;;4405777;32;20076;-76
2022/06/22 07:37:09;;;;;;;10.13;5.87;;;;;;;;;;4401358;32;20022;-76
2022/06/22 07:42:59;;;;;;;10.40;5.87;;;;;;;;;;4401579;32;20379;-78
2022/06/22 07:45:26;;;;;;;8.90;5.70;;;;;;;;;;4404931;32;20093;-76
2022/06/22 07:47:55;;;;;;;10.00;5.28;;;;;;;;;;4392813;32;20467;-76
2022/06/22 07:50:32;;;;;;;8.80;6.03;;;;;;;;;;4405757;32;20029;-76
2022/06/22 07:53:00;;;;;;;8.70;5.05;;;;;;;;;;4405239;32;20046;-76
2022/06/22 07:58:32;;;;;;;8.20;5.40;;;;;;;;;;4420829;32;20059;-77
2022/06/22 08:01:32;;;;;;;;;;;;;;;;;;;;;
2022/06/22 08:04:14;;;;;;;10.05;4.30;;;;;;;;;;4414781;32;20049;-77
2022/06/22 08:10:12;;;;;;;10.02;4.50;;;;;;;;;;4405552;32;20418;-77
2022/06/22 08:16:17;;;;;;;7.70;4.18;;;;;;;;;;4358161;33;20089;-77
2022/06/22 08:18:43;;;;;;;7.18;4.20;;;;;;;;;;4360718;32;20145;-77
2022/06/22 08:21:12;;;;;;;8.77;4.55;;;;;;;;;;4389822;32;20038;-77
2022/06/22 08:24:13;;;;;;;9.00;4.95;;;;;;;;;;4406041;32;20073;-76
2022/06/22 08:26:45;;;;;;;8.07;4.28;;;;;;;;;;4371560;32;20030;-76
2022/06/22 08:29:37;;;;;;;16.90;4.87;;;;;;;;;;4403099;32;20092;-76
2022/06/22 08:32:10;;;;;;;9.50;4.00;;;;;;;;;;4404417;32;20066;-76
2022/06/22 08:34:42;;;;;;;5.85;3.75;;;;;;;;;;4418823;32;20025;-77
2022/06/22 08:37:12;;;;;;;7.00;4.07;;;;;;;;;;4420075;32;20030;-76
2022/06/22 08:42:51;;;;;;;6.35;3.60;;;;;;;;;;4403424;32;20084;-77
2022/06/22 08:45:42;;;;;;;6.32;4.25;;;;;;;;;;4418861;32;20041;-77
2022/06/22 08:48:35;;;;;;;7.47;4.32;;;;;;;;;;4411324;32;20026;-76
2022/06/22 08:51:29;;;;;;;8.10;4.40;;;;;;;;;;4399035;32;20042;-77
2022/06/22 08:57:20;;;;;;;9.55;4.20;;;;;;;;;;4377537;32;20018;-76
2022/06/22 09:06:18;;;;;;;6.22;3.30;;;;;;;;;;4392508;32;20050;-76
2022/06/22 09:08:49;;;;;;;8.00;3.58;;;;;;;;;;4392698;32;20089;-77
2022/06/22 09:14:45;;;;;;;6.87;4.05;;;;;;;;;;4393171;32;20080;-77
2022/06/22 09:17:52;;;;;;;5.95;3.58;;;;;;;;;;4392666;32;20038;-76
2022/06/22 09:20:26;;;;;;;8.00;3.83;;;;;;;;;;4301690;33;20025;-76
2022/06/22 09:22:57;;;;;;;7.37;3.58;;;;;;;;;;4367194;32;20078;-76
2022/06/22 09:25:32;;;;;;;5.50;3.30;;;;;;;;;;4375991;32;20049;-77
2022/06/22 09:28:05;;;;;;;5.27;2.90;;;;;;;;;;4381030;32;20473;-77
2022/06/22 09:30:36;;;;;;;6.07;3.72;;;;;;;;;;4392324;32;20083;-75
2022/06/22 09:33:32;;;;;;;8.30;3.00;;;;;;;;;;4392188;32;20066;-76
2022/06/22 09:36:29;;;;;;;9.52;5.30;;;;;;;;;;4391527;32;20050;-76
2022/06/22 09:39:19;;;;;;;6.00;3.72;;;;;;;;;;4391831;32;20081;-77
2022/06/22 09:41:52;;;;;;;4.18;2.28;;;;;;;;;;4392143;32;20034;-76
2022/06/22 09:50:48;;;;;;;7.30;2.40;;;;;;;;;;4330012;33;20028;-76
2022/06/22 09:53:35;;;;;;;5.85;2.67;;;;;;;;;;4329831;33;20039;-76
2022/06/22 09:56:20;;;;;;;6.37;2.43;;;;;;;;;;4366975;32;20101;-76
2022/06/22 10:02:26;;;;;;;7.57;2.67;;;;;;;;;;4391481;32;20038;-76
2022/06/22 10:11:24;;;;;;;3.17;2.00;;;;;;;;;;4294027;33;20587;-77
2022/06/22 10:17:12;;;;;;;4.57;2.47;;;;;;;;;;4344637;33;20078;-77
2022/06/22 10:19:56;;;;;;;3.78;2.20;;;;;;;;;;4330356;33;20028;-77
2022/06/22 10:22:46;;;;;;;3.20;2.00;;;;;;;;;;4329992;33;20079;-76
2022/06/22 10:28:46;;;;;;;2.55;1.80;;;;;;;;;;4321623;33;20055;-77
2022/06/22 10:31:23;;;;;;;2.78;1.87;;;;;;;;;;4376386;32;20042;-76
2022/06/22 10:46:12;;;;;;;6.25;1.92;;;;;;;;;;4300747;33;20099;-77
2022/06/22 10:49:03;;;;;;;2.80;1.20;;;;;;;;;;4337116;33;20043;-76
2022/06/22 10:52:05;;;;;;;3.12;1.55;;;;;;;;;;4359060;32;20410;-77
2022/06/22 10:57:59;;;;;;;7.28;1.42;;;;;;;;;;4344376;33;20081;-76
2022/06/22 11:03:57;;;;;;;4.50;1.55;;;;;;;;;;4355929;32;20073;-76
2022/06/22 11:09:39;;;;;;;2.87;1.35;;;;;;;;;;4390636;32;20041;-76
2022/06/22 11:12:13;;;;;;;7.32;1.58;;;;;;;;;;4389408;32;20404;-77
2022/06/22 11:18:14;;;;;;;4.55;1.70;;;;;;;;;;4319010;33;20067;-76
2022/06/22 11:21:17;;;;;;;;;;;;;;;;;;;;;
2022/06/22 11:24:16;;;;;;;6.53;1.60;;;;;;;;;;4374599;32;20074;-77
2022/06/22 11:39:09;;;;;;;2.78;1.62;;;;;;;;;;4358158;32;20452;-77
2022/06/22 11:48:17;;;;;;;3.03;1.40;;;;;;;;;;4386095;32;20069;-77
2022/06/22 11:50:48;;;;;;;5.82;2.42;;;;;;;;;;4374924;32;20131;-77
2022/06/22 11:53:55;;;;;;;4.22;1.55;;;;;;;;;;4376220;32;20057;-77
2022/06/22 11:56:52;;;;;;;3.40;1.55;;;;;;;;;;4338343;32;20031;-79
2022/06/22 11:59:20;;;;;;;;;;;;;;;;;;4380680;32;20043;-78
2022/06/22 12:09:01;;;;;;;3.83;1.40;;;;;;;;;;4314023;33;20075;-77
2022/06/22 12:11:57;;;;;;;5.53;1.37;;;;;;;;;;4314411;33;20054;-76
2022/06/22 12:17:19;;;;;;;4.82;1.20;;;;;;;;;;4389103;32;20108;-77
2022/06/22 12:20:04;;;;;;;2.05;1.10;;;;;;;;;;4390146;32;20340;-75
2022/06/22 12:26:01;;;;;;;3.42;1.75;;;;;;;;;;4339099;33;20102;-78
2022/06/22 12:28:29;;;;;;;2.72;1.48;;;;;;;;;;4344702;32;20055;-77
2022/06/22 12:31:23;;;;;;;3.58;1.80;;;;;;;;;;4386202;32;20460;-78
2022/06/22 12:33:59;;;;;;;2.12;1.20;;;;;;;;;;4390252;32;20412;-78
2022/06/22 12:36:28;;;;;;;4.28;1.50;;;;;;;;;;4393536;32;20058;-78
2022/06/22 12:39:13;;;;;;;7.18;1.60;;;;;;;;;;4392682;32;20048;-77
2022/06/22 12:42:08;;;;;;;;;;;;;;;;;;;;;
2022/06/22 12:44:52;;;;;;;5.82;1.60;;;;;;;;;;4392785;32;20149;-77
2022/06/22 12:47:46;;;;;;;3.30;1.45;;;;;;;;;;4388302;32;20039;-78
2022/06/22 12:50:11;;;;;;;3.58;1.50;;;;;;;;;;4393081;32;20039;-78
2022/06/22 13:02:05;;;;;;;4.47;2.00;;;;;;;;;;4407829;32;20053;-78
2022/06/22 13:04:33;;;;;;;2.80;1.48;;;;;;;;;;4408652;32;20027;-77
2022/06/22 13:07:22;;;;;;;3.70;1.37;;;;;;;;;;4408562;32;20022;-78
2022/06/22 13:09:49;;;;;;;4.22;1.37;;;;;;;;;;4407122;32;20087;-77
2022/06/22 13:12:14;;;;;;;4.85;1.45;;;;;;;;;;4407664;32;20027;-78
2022/06/22 13:14:44;;;;;;;2.92;1.48;;;;;;;;;;4407170;32;20116;-73
2022/06/22 13:20:32;;;;;;;1.50;1.15;;;;;;;;;;4392260;32;20073;-78
2022/06/22 13:23:04;;;;;;;2.47;1.40;;;;;;;;;;4391848;32;20084;-77
2022/06/22 13:28:55;;;;;;;3.85;1.33;;;;;;;;;;4406906;32;20068;-78
2022/06/22 13:31:23;;;;;;;2.35;1.40;;;;;;;;;;4385349;32;20030;-77
2022/06/22 13:34:15;;;;;;;2.53;1.80;;;;;;;;;;4391923;32;20022;-76
2022/06/22 13:36:44;;;;;;;4.07;1.42;;;;;;;;;;4379312;32;20072;-77
2022/06/22 13:39:31;;;;;;;1.62;1.10;;;;;;;;;;4391651;32;20042;-77
2022/06/22 13:42:09;;;;;;;;;;;;;;;;;;;;;
2022/06/22 13:44:44;;;;;;;3.08;1.52;;;;;;;;;;4389357;32;20042;-78
2022/06/22 13:47:16;;;;;;;3.12;1.75;;;;;;;;;;4394522;32;20137;-77
2022/06/22 13:50:17;;;;;;;4.18;1.85;;;;;;;;;;4406867;32;20022;-76
2022/06/22 13:52:47;;;;;;;2.20;1.35;;;;;;;;;;4407044;32;20092;-77
2022/06/22 13:55:22;;;;;;;4.35;1.80;;;;;;;;;;4406339;32;20058;-78
2022/06/22 13:57:49;;;;;;;5.05;1.90;;;;;;;;;;4408060;32;20098;-77
2022/06/22 14:00:22;;;;;;;4.75;1.60;;;;;;;;;;4404802;32;20059;-77
2022/06/22 14:02:53;;;;;;;3.92;1.62;;;;;;;;;;4407530;32;20408;-77
2022/06/22 14:05:41;;;;;;;5.20;1.73;;;;;;;;;;4406506;32;20034;-77
2022/06/22 14:08:18;;;;;;;3.55;1.75;;;;;;;;;;4406678;32;20038;-78
2022/06/22 14:10:53;;;;;;;4.35;1.83;;;;;;;;;;4405930;32;20058;-78
2022/06/22 14:13:18;;;;;;;;;;;;;;;;;;4407687;32;20117;-77
2022/06/22 14:15:44;;;;;;;;;;;;;;;;;;4406799;32;20267;-77
2022/06/22 14:18:24;;;;;;;5.93;1.67;;;;;;;;;;4392640;32;19937;-77
2022/06/22 14:21:06;;;;;;;2.90;1.50;;;;;;;;;;4407546;32;20030;-77
2022/06/22 14:23:34;;;;;;;4.60;1.50;;;;;;;;;;4406449;32;20066;-77
2022/06/22 14:26:18;;;;;;;4.20;1.80;;;;;;;;;;4406112;32;20026;-77
2022/06/22 14:28:56;;;;;;;3.35;2.03;;;;;;;;;;4392858;32;20046;-78
2022/06/22 14:31:26;;;;;;;2.87;1.62;;;;;;;;;;4406522;32;20108;-78
2022/06/22 14:34:06;;;;;;;5.37;2.10;;;;;;;;;;4406464;32;20455;-76
2022/06/22 14:36:47;;;;;;;4.95;2.25;;;;;;;;;;4406201;32;20046;-76
2022/06/22 14:39:36;;;;;;;4.95;2.72;;;;;;;;;;4406292;32;20058;-77
2022/06/22 14:42:05;;;;;;;4.00;1.90;;;;;;;;;;4406493;32;20026;-76
2022/06/22 14:44:53;;;;;;;2.85;1.20;;;;;;;;;;4407519;32;20031;-78
2022/06/22 14:47:21;;;;;;;1.98;1.20;;;;;;;;;;4391485;32;20053;-77
2022/06/22 14:49:46;;;;;;;2.67;1.45;;;;;;;;;;4390224;32;20130;-77
2022/06/22 14:52:12;;;;;;;5.40;1.80;;;;;;;;;;4391344;32;20031;-78
2022/06/22 14:54:46;;;;;;;3.45;1.30;;;;;;;;;;4381235;32;20030;-77
2022/06/22 14:57:30;;;;;;;4.18;1.83;;;;;;;;;;4405890;32;20081;-77
2022/06/22 14:59:58;;;;;;;3.22;1.70;;;;;;;;;;4405967;32;20416;-77
2022/06/22 15:02:29;;;;;;;3.33;1.80;;;;;;;;;;4405835;32;20046;-80
2022/06/22 15:04:56;;;;;;;5.22;1.42;;;;;;;;;;4406423;32;20041;-80
2022/06/22 15:07:32;;;;;;;2.85;1.77;;;;;;;;;;4406196;32;20053;-79
2022/06/22 15:10:00;;;;;;;3.53;1.40;;;;;;;;;;4406252;32;20030;-78
2022/06/22 15:15:09;;;;;;;5.65;2.03;;;;;;;;;;4406657;32;20049;-79
2022/06/22 15:17:43;;;;;;;3.08;1.48;;;;;;;;;;4405471;32;20348;-79
2022/06/22 15:20:15;;;;;;;8.68;2.08;;;;;;;;;;4406652;32;20078;-79
2022/06/22 15:22:44;;;;;;;6.15;1.40;;;;;;;;;;4406134;32;20025;-80
2022/06/22 15:25:10;;;;;;;5.15;1.70;;;;;;;;;;4405997;32;20053;-79
2022/06/22 15:27:38;;;;;;;4.57;1.65;;;;;;;;;;4405972;32;20092;-80
2022/06/22 15:30:14;;;;;;;6.40;1.37;;;;;;;;;;4391956;32;20035;-78
2022/06/22 15:32:49;;;;;;;3.95;1.40;;;;;;;;;;4405849;32;20022;-79
2022/06/22 15:35:24;;;;;;;3.83;1.40;;;;;;;;;;4405125;32;20048;-78
2022/06/22 15:37:50;;;;;;;;;;;;;;;;;;4392068;32;20052;-78
2022/06/22 15:40:15;;;;;;;;;;;;;;;;;;4405767;32;19937;-79
2022/06/22 15:42:43;;;;;;;2.63;1.47;;;;;;;;;;4405364;32;19975;-80
2022/06/22 15:45:27;;;;;;;3.90;1.20;;;;;;;;;;4405520;32;20054;-79
2022/06/22 15:47:58;;;;;;;3.20;1.15;;;;;;;;;;4405456;32;20486;-80
2022/06/22 15:50:46;;;;;;;2.95;1.35;;;;;;;;;;4405860;32;20064;-79
2022/06/22 15:53:14;;;;;;;10.60;1.52;;;;;;;;;;4396462;32;20046;-79
2022/06/22 15:55:46;;;;;;;2.75;1.35;;;;;;;;;;4404523;32;20030;-79
2022/06/22 15:58:29;;;;;;;2.92;1.30;;;;;;;;;;4392334;32;20114;-79
2022/06/22 16:01:02;;;;;;;3.67;1.40;;;;;;;;;;4375162;32;20038;-79
2022/06/22 16:03:27;;;;;;;4.25;1.42;;;;;;;;;;4375374;32;20023;-78
2022/06/22 16:06:08;;;;;;;4.35;1.45;;;;;;;;;;4375554;32;20405;-78
2022/06/22 16:08:55;;;;;;;3.90;1.70;;;;;;;;;;4375868;32;20096;-80
2022/06/22 16:14:27;;;;;;;2.33;1.42;;;;;;;;;;4377464;32;20045;-79
2022/06/22 16:17:01;;;;;;;2.17;1.40;;;;;;;;;;4405351;32;20066;-79
2022/06/22 16:20:11;;;;;;;3.80;1.40;;;;;;;;;;4406480;32;20022;-78
2022/06/22 16:23:00;;;;;;;;;;;;;;;;;;;;;
2022/06/22 16:25:55;;;;;;;2.85;1.30;;;;;;;;;;4343926;33;20028;-79
2022/06/22 16:28:36;;;;;;;5.22;1.45;;;;;;;;;;4314751;33;20055;-78
2022/06/22 16:31:15;;;;;;;2.47;1.35;;;;;;;;;;4354199;33;20035;-79
2022/06/22 16:33:40;;;;;;;1.92;1.60;;;;;;;;;;4362444;32;20026;-78
2022/06/22 16:36:21;;;;;;;3.92;1.40;;;;;;;;;;4396537;32;20096;-79
2022/06/22 16:38:58;;;;;;;3.22;1.58;;;;;;;;;;4401785;32;20082;-79
2022/06/22 16:41:24;;;;;;;3.47;1.30;;;;;;;;;;4390404;32;20030;-78
2022/06/22 16:43:54;;;;;;;2.62;1.70;;;;;;;;;;4400623;32;20046;-78
2022/06/22 16:46:38;;;;;;;5.82;1.85;;;;;;;;;;4400230;32;20096;-78
2022/06/22 16:49:38;;;;;;;6.07;1.80;;;;;;;;;;4392452;32;20117;-79
2022/06/22 16:52:22;;;;;;;5.75;1.70;;;;;;;;;;4402542;32;20025;-79
2022/06/22 16:55:12;;;;;;;2.97;1.62;;;;;;;;;;4404006;32;20026;-79
2022/06/22 16:57:40;;;;;;;8.35;2.60;;;;;;;;;;4404130;32;20440;-78
2022/06/22 17:00:06;;;;;;;3.75;1.52;;;;;;;;;;4404696;32;20399;-79
2022/06/22 17:02:47;;;;;;;4.20;1.67;;;;;;;;;;4404322;32;20052;-79
2022/06/22 17:05:34;;;;;;;3.28;1.67;;;;;;;;;;4404243;32;20062;-78
2022/06/22 17:07:59;;;;;;;;;;;;;;;;;;4405142;32;20098;-78
2022/06/22 17:10:44;;;;;;;2.90;1.80;;;;;;;;;;4404256;32;20283;-78
2022/06/22 17:13:12;;;;;;;6.77;1.90;;;;;;;;;;4392399;32;20034;-77
2022/06/22 17:15:48;;;;;;;6.05;1.95;;;;;;;;;;4393596;32;20035;-78
2022/06/22 17:18:19;;;;;;;5.78;2.20;;;;;;;;;;4398954;32;20099;-78
2022/06/22 17:20:59;;;;;;;7.50;2.20;;;;;;;;;;4406058;32;20454;-77
2022/06/22 17:23:29;;;;;;;4.32;2.33;;;;;;;;;;4407814;32;20114;-78
2022/06/22 17:26:12;;;;;;;4.72;2.30;;;;;;;;;;4407328;32;20038;-77
2022/06/22 17:31:56;;;;;;;6.00;2.37;;;;;;;;;;4365663;32;20111;-78
2022/06/22 17:34:43;;;;;;;6.62;2.12;;;;;;;;;;4360358;32;20016;-78
2022/06/22 17:37:29;;;;;;;3.22;1.90;;;;;;;;;;4391520;32;20046;-77
2022/06/22 17:40:13;;;;;;;3.73;1.70;;;;;;;;;;4396219;32;20052;-77
2022/06/22 17:42:47;;;;;;;9.38;2.37;;;;;;;;;;4404132;32;20126;-77
2022/06/22 17:45:47;;;;;;;5.28;2.08;;;;;;;;;;4405374;32;20508;-77
2022/06/22 17:48:30;;;;;;;;;;;;;;;;;;;;;
2022/06/22 17:51:03;;;;;;;4.97;1.73;;;;;;;;;;4387420;32;20400;-78
2022/06/22 17:53:43;;;;;;;6.78;2.72;;;;;;;;;;4399727;32;20053;-77
2022/06/22 17:59:42;;;;;;;4.62;1.75;;;;;;;;;;4391863;32;20373;-79
2022/06/22 18:02:20;;;;;;;9.13;2.00;;;;;;;;;;4417809;32;20050;-78
2022/06/22 18:05:17;;;;;;;4.00;1.85;;;;;;;;;;4421099;32;20523;-78
2022/06/22 18:07:42;;;;;;;;;;;;;;;;;;4412383;32;20030;-79
2022/06/22 18:13:10;;;;;;;5.68;2.12;;;;;;;;;;4359666;32;20058;-78
2022/06/22 18:19:07;;;;;;;4.47;2.20;;;;;;;;;;4420421;32;20053;-78
2022/06/22 18:24:48;;;;;;;6.62;2.92;;;;;;;;;;4415878;32;20053;-78
2022/06/22 18:27:14;;;;;;;6.55;2.50;;;;;;;;;;4407008;32;20053;-78
2022/06/22 18:29:46;;;;;;;6.50;3.55;;;;;;;;;;4406699;32;20021;-78
2022/06/22 18:32:20;;;;;;;11.02;3.85;;;;;;;;;;4405538;32;20023;-78
2022/06/22 18:35:07;;;;;;;8.68;3.20;;;;;;;;;;4405708;32;20038;-77
2022/06/22 18:37:40;;;;;;;6.93;3.60;;;;;;;;;;4406538;32;20083;-77
2022/06/22 18:42:58;;;;;;;10.52;3.72;;;;;;;;;;4421907;32;20110;-77
2022/06/22 18:45:39;;;;;;;9.95;4.00;;;;;;;;;;4401101;32;20132;-77
2022/06/22 18:48:10;;;;;;;9.88;5.53;;;;;;;;;;4421355;32;20018;-77
2022/06/22 18:50:46;;;;;;;14.87;5.93;;;;;;;;;;4412666;32;20328;-77
2022/06/22 18:53:26;;;;;;;7.72;4.50;;;;;;;;;;4416303;32;20033;-79
2022/06/22 18:55:57;;;;;;;13.27;5.43;;;;;;;;;;4410232;32;20022;-78
2022/06/22 18:58:43;;;;;;;11.45;5.85;;;;;;;;;;4394048;32;20633;-79
2022/06/22 19:01:15;;;;;;;13.48;6.72;;;;;;;;;;4402862;32;20114;-78
2022/06/22 19:03:58;;;;;;;12.27;6.30;;;;;;;;;;4405092;32;20372;-78
2022/06/22 19:06:47;;;;;;;14.10;6.45;;;;;;;;;;4402832;32;20059;-77
2022/06/22 19:09:19;;;;;;;15.98;6.40;;;;;;;;;;4401999;32;20050;-77
2022/06/22 19:11:53;;;;;;;15.63;6.90;;;;;;;;;;4396434;32;20027;-77
2022/06/22 19:14:19;;;;;;;13.70;6.57;;;;;;;;;;4404798;32;20394;-77
2022/06/22 19:17:03;;;;;;;16.05;7.68;;;;;;;;;;4405611;32;20026;-77
2022/06/22 19:19:51;;;;;;;13.13;7.72;;;;;;;;;;4399439;32;20360;-77
2022/06/22 19:22:22;;;;;;;13.60;8.18;;;;;;;;;;4391771;32;20337;-77
2022/06/22 19:24:50;;;;;;;12.45;7.68;;;;;;;;;;4391400;32;20056;-77
2022/06/22 19:27:32;;;;;;;;;;;;;;;;;;;;;
2022/06/22 19:30:11;;;;;;;;;;;;;;;;;;;;;
2022/06/22 19:35:57;;;;;;;16.35;8.60;;;;;;;;;;4372489;32;20057;-78
2022/06/22 19:38:40;;;;;;;15.68;7.95;;;;;;;;;;4361499;32;20056;-77
2022/06/22 19:41:37;;;;;;;14.65;8.95;;;;;;;;;;4375287;32;20100;-77
2022/06/22 19:44:21;;;;;;;15.85;8.07;;;;;;;;;;4396493;32;20084;-78
2022/06/22 19:47:10;;;;;;;12.88;8.32;;;;;;;;;;4402779;32;20064;-79
2022/06/22 19:50:00;;;;;;;16.00;8.63;;;;;;;;;;4393873;32;20030;-77
2022/06/22 19:52:44;;;;;;;17.08;8.82;;;;;;;;;;4398443;32;20030;-77
2022/06/22 19:55:39;;;;;;;12.98;8.80;;;;;;;;;;4387659;32;20022;-77
2022/06/22 20:01:08;;;;;;;15.43;8.90;;;;;;;;;;4394020;32;20086;-77
2022/06/22 20:03:52;;;;;;;18.67;8.40;;;;;;;;;;4399175;32;20066;-78
2022/06/22 20:06:23;;;;;;;15.93;8.40;;;;;;;;;;4379633;32;20093;-78
2022/06/22 20:08:55;;;;;;;23.85;10.43;;;;;;;;;;4413226;32;20348;-78
2022/06/22 20:11:47;;;;;;;13.57;9.27;;;;;;;;;;4412806;32;20366;-77
2022/06/22 20:20:49;;;;;;;18.83;9.48;;;;;;;;;;4343279;33;20436;-76
2022/06/22 20:23:33;;;;;;;21.12;10.18;;;;;;;;;;4344045;33;20027;-75
2022/06/22 20:26:05;;;;;;;17.05;9.93;;;;;;;;;;4381066;32;20458;-75
2022/06/22 20:28:48;;;;;;;22.05;11.43;;;;;;;;;;4390429;32;20027;-75
2022/06/22 20:43:51;;;;;;;16.25;10.70;;;;;;;;;;4343405;33;20175;-76
2022/06/22 20:46:34;;;;;;;;;;;;;;;;;;;;;
2022/06/22 20:49:09;;;;;;;19.27;10.18;;;;;;;;;;4339616;33;20032;-76
2022/06/22 20:51:47;;;;;;;16.87;10.15;;;;;;;;;;4343368;33;20067;-76
2022/06/22 20:54:23;;;;;;;19.83;10.27;;;;;;;;;;4345175;32;20363;-76
2022/06/22 20:56:48;;;;;;;;;;;;;;;;;;4408111;32;20045;-76
2022/06/22 20:59:15;;;;;;;19.50;9.85;;;;;;;;;;4407578;32;19953;-76
2022/06/22 21:02:28;;;;;;;18.60;10.75;;;;;;;;;;4407503;32;20404;-75
2022/06/22 21:05:31;;;;;;;13.88;9.75;;;;;;;;;;4331634;33;20106;-76
2022/06/22 21:14:37;;;;;;;16.52;10.90;;;;;;;;;;4318841;33;20051;-76
2022/06/22 21:17:42;;;;;;;16.55;10.82;;;;;;;;;;4328663;33;20064;-76
2022/06/22 21:20:36;;;;;;;26.50;11.57;;;;;;;;;;4393117;32;20147;-76
2022/06/22 21:23:26;;;;;;;23.42;11.15;;;;;;;;;;4407647;32;20022;-76
2022/06/22 21:32:16;;;;;;;17.77;10.32;;;;;;;;;;4375065;32;20113;-76
2022/06/22 21:38:07;;;;;;;16.67;9.80;;;;;;;;;;4364624;32;20072;-76
2022/06/22 21:40:58;;;;;;;14.52;10.40;;;;;;;;;;4392447;32;20027;-76
2022/06/22 21:43:48;;;;;;;17.48;10.63;;;;;;;;;;4366290;32;20099;-76
2022/06/22 21:46:19;;;;;;;20.98;11.90;;;;;;;;;;4407764;32;20514;-76
2022/06/22 21:49:06;;;;;;;22.70;11.48;;;;;;;;;;4406947;32;20121;-76
2022/06/22 21:55:19;;;;;;;17.98;10.55;;;;;;;;;;4332906;33;20094;-75
2022/06/22 21:57:45;;;;;;;14.98;11.05;;;;;;;;;;4344900;33;20027;-76
2022/06/22 22:00:28;;;;;;;;;;;;;;;;;;;;;
2022/06/22 22:06:17;;;;;;;13.30;9.93;;;;;;;;;;4287188;33;20129;-75
2022/06/22 22:21:13;;;;;;;19.23;10.80;;;;;;;;;;4358204;32;20053;-75
2022/06/22 22:23:42;;;;;;;16.73;11.30;;;;;;;;;;4391994;32;20447;-75
2022/06/22 22:26:22;;;;;;;19.73;11.40;;;;;;;;;;4377669;32;20425;-75
2022/06/22 22:28:51;;;;;;;20.88;10.98;;;;;;;;;;4391603;32;20043;-76
2022/06/22 22:31:17;;;;;;;18.55;11.88;;;;;;;;;;4396093;32;20060;-76
2022/06/22 22:33:43;;;;;;;14.65;11.07;;;;;;;;;;4392769;32;20026;-75
2022/06/22 22:42:31;;;;;;;19.75;11.65;;;;;;;;;;4359233;32;20084;-75
2022/06/22 22:44:58;;;;;;;20.17;12.07;;;;;;;;;;4389259;32;20030;-75
2022/06/22 22:47:36;;;;;;;15.75;10.77;;;;;;;;;;4391424;32;20085;-76
2022/06/22 22:50:38;;;;;;;15.82;10.77;;;;;;;;;;4391053;32;20035;-75
2022/06/22 22:53:27;;;;;;;16.20;11.80;;;;;;;;;;4391657;32;20046;-76
2022/06/22 22:55:53;;;;;;;15.52;10.80;;;;;;;;;;4396310;32;20030;-75
2022/06/22 23:01:45;;;;;;;22.15;11.20;;;;;;;;;;4407422;32;20082;-76
2022/06/22 23:21:36;;;;;;;25.30;12.93;;;;;;;;;;4376174;32;20372;-75
2022/06/22 23:24:06;;;;;;;18.55;11.35;;;;;;;;;;4376004;32;20026;-76
2022/06/22 23:27:00;;;;;;;22.98;12.85;;;;;;;;;;4369917;32;20447;-75
2022/06/22 23:29:55;;;;;;;15.77;11.63;;;;;;;;;;4372068;32;20038;-76
2022/06/22 23:41:22;;;;;;;20.40;10.90;;;;;;;;;;4375205;32;20057;-76
2022/06/22 23:43:53;;;;;;;20.75;11.20;;;;;;;;;;4364823;32;20023;-75
2022/06/22 23:46:21;;;;;;;18.73;10.90;;;;;;;;;;4391652;32;20015;-75
2022/06/22 23:48:59;;;;;;;;;;;;;;;;;;;;;
2022/06/22 23:51:54;;;;;;;17.77;10.40;;;;;;;;;;4388380;32;20368;-75
2022/06/22 23:54:20;;;;;;;16.60;9.65;;;;;;;;;;4390005;32;20042;-75